Hlavní strana
METAR-TAF:

METAR-TAF

Letiště :

Aarhus, Dánsko

zeměpisná šířka: 56-18N, zeměpisná délka: 010-37E, výška: 23 m

Aktuální stav počasí

Zpráva byla vytvořena před 34 minutami, v 10:50 UTC
Severní vítr 9 kt, proměnlivý mezi severoseverozápadním a severovýchodním
Teplota 5°C
Vlhkost vzduchu 52%
Tlak 1017 hPa
Viditelnost 10 km a více

METAR: EKAH 071050Z AUTO 01009KT 330V040 9999 BKN049/// BKN059/// 05/M04 Q1017

Čas: 12:24 (11:24 UTC)

Předpověď počasí

Zpráva byla vytvořena před 6 hodinami a 8 minutami, v 05:16 UTC
Předpověď platná od 07 v 06 UTC do 08 v 06 UTC
Západní vítr 15 kt s nárazy do 28 kt
Viditelnost 10 km a více
Oblačno až skoro zataženo ve výšce 1200 ft
Změna
od 07 v 06 UTC do 07 v 09 UTC
Severoseverozápadní vítr 8 kt
Polojasno ve výšce 2000 ft

TAF: EKAH 070516Z 0706/0806 28015G28KT 9999 BKN012 BECMG 0706/0709 34008KT SCT020

Stav a předpovědi počasí z více než 4 000 letišť (zprávy METAR a TAF).

Červené a žluté tečky na mapě představují dostupné meteorologické stanice.

Když kurzor umístíte na tečku, zobrazí se název stanice.

Pak kliknutím zobrazíte stav a předpověď počasí.

Chcete-li změnit mapu, kliknutím na zelené tlačítko se znaménkem +mapu přiblížíte, kliknutím na zelené tlačítko se znaménkem – mapu oddálíte a kliknutím na zelené šipky přejdete na sousední mapy.


METAR-TAF: